sensor_id;sensor_type;location;lat;lon;timestamp;temperature;humidity
46926;DHT22;32667;48.248;-1.700;2023-02-24T00:01:14;9.20;73.80
46926;DHT22;32667;48.248;-1.700;2023-02-24T00:03:55;9.20;73.80
46926;DHT22;32667;48.248;-1.700;2023-02-24T00:06:27;9.10;73.80
46926;DHT22;32667;48.248;-1.700;2023-02-24T00:09:00;9.10;73.90
46926;DHT22;32667;48.248;-1.700;2023-02-24T00:11:26;9.10;73.90
46926;DHT22;32667;48.248;-1.700;2023-02-24T00:13:52;9.10;74.00
46926;DHT22;32667;48.248;-1.700;2023-02-24T00:16:18;9.10;74.00
46926;DHT22;32667;48.248;-1.700;2023-02-24T00:18:49;9.10;74.00
46926;DHT22;32667;48.248;-1.700;2023-02-24T00:21:16;9.10;74.00
46926;DHT22;32667;48.248;-1.700;2023-02-24T00:23:42;9.10;74.00
46926;DHT22;32667;48.248;-1.700;2023-02-24T00:26:09;9.10;73.90
46926;DHT22;32667;48.248;-1.700;2023-02-24T00:28:35;9.20;74.00
46926;DHT22;32667;48.248;-1.700;2023-02-24T00:31:04;9.20;74.00
46926;DHT22;32667;48.248;-1.700;2023-02-24T00:33:31;9.20;73.90
46926;DHT22;32667;48.248;-1.700;2023-02-24T00:36:03;9.20;73.90
46926;DHT22;32667;48.248;-1.700;2023-02-24T00:38:29;9.20;73.80
46926;DHT22;32667;48.248;-1.700;2023-02-24T00:41:10;9.30;73.90
46926;DHT22;32667;48.248;-1.700;2023-02-24T00:43:39;9.30;74.50
46926;DHT22;32667;48.248;-1.700;2023-02-24T00:46:04;9.30;73.90
46926;DHT22;32667;48.248;-1.700;2023-02-24T00:48:38;9.30;73.90
46926;DHT22;32667;48.248;-1.700;2023-02-24T00:51:07;9.30;73.80
46926;DHT22;32667;48.248;-1.700;2023-02-24T00:53:32;9.30;73.80
46926;DHT22;32667;48.248;-1.700;2023-02-24T00:55:58;9.30;73.80
46926;DHT22;32667;48.248;-1.700;2023-02-24T00:58:27;9.30;73.80
46926;DHT22;32667;48.248;-1.700;2023-02-24T01:00:54;9.30;73.80
46926;DHT22;32667;48.248;-1.700;2023-02-24T01:03:20;9.40;73.80
46926;DHT22;32667;48.248;-1.700;2023-02-24T01:05:46;9.40;73.80
46926;DHT22;32667;48.248;-1.700;2023-02-24T01:08:14;9.40;73.80
46926;DHT22;32667;48.248;-1.700;2023-02-24T01:10:53;9.40;73.80
46926;DHT22;32667;48.248;-1.700;2023-02-24T01:13:39;9.40;73.80
46926;DHT22;32667;48.248;-1.700;2023-02-24T01:16:04;9.40;73.80
46926;DHT22;32667;48.248;-1.700;2023-02-24T01:18:30;9.30;73.80
46926;DHT22;32667;48.248;-1.700;2023-02-24T01:20:57;9.40;73.90
46926;DHT22;32667;48.248;-1.700;2023-02-24T01:23:22;9.40;73.90
46926;DHT22;32667;48.248;-1.700;2023-02-24T01:25:48;9.40;73.90
46926;DHT22;32667;48.248;-1.700;2023-02-24T01:28:14;9.40;73.90
46926;DHT22;32667;48.248;-1.700;2023-02-24T01:30:40;9.40;73.90
46926;DHT22;32667;48.248;-1.700;2023-02-24T01:33:10;9.40;73.90
46926;DHT22;32667;48.248;-1.700;2023-02-24T01:35:39;9.40;74.00
46926;DHT22;32667;48.248;-1.700;2023-02-24T01:38:07;9.30;73.90
46926;DHT22;32667;48.248;-1.700;2023-02-24T01:40:36;9.30;73.90
46926;DHT22;32667;48.248;-1.700;2023-02-24T01:43:02;9.30;73.90
46926;DHT22;32667;48.248;-1.700;2023-02-24T01:45:33;9.30;74.00
46926;DHT22;32667;48.248;-1.700;2023-02-24T01:48:03;9.30;73.90
46926;DHT22;32667;48.248;-1.700;2023-02-24T01:50:30;9.30;74.00
46926;DHT22;32667;48.248;-1.700;2023-02-24T01:53:03;9.20;74.00
46926;DHT22;32667;48.248;-1.700;2023-02-24T01:58:18;9.20;74.10
46926;DHT22;32667;48.248;-1.700;2023-02-24T02:00:46;9.20;74.10
46926;DHT22;32667;48.248;-1.700;2023-02-24T02:03:19;9.10;74.10
46926;DHT22;32667;48.248;-1.700;2023-02-24T02:05:48;9.10;74.20
46926;DHT22;32667;48.248;-1.700;2023-02-24T02:08:16;9.10;74.30
46926;DHT22;32667;48.248;-1.700;2023-02-24T02:10:42;9.10;74.30
46926;DHT22;32667;48.248;-1.700;2023-02-24T02:13:11;9.10;74.40
46926;DHT22;32667;48.248;-1.700;2023-02-24T02:15:47;9.00;74.30
46926;DHT22;32667;48.248;-1.700;2023-02-24T02:18:22;9.10;74.30
46926;DHT22;32667;48.248;-1.700;2023-02-24T02:20:59;9.10;74.30
46926;DHT22;32667;48.248;-1.700;2023-02-24T02:41:51;9.10;74.10
46926;DHT22;32667;48.248;-1.700;2023-02-24T02:44:20;9.10;74.10
46926;DHT22;32667;48.248;-1.700;2023-02-24T02:46:54;9.10;74.10
46926;DHT22;32667;48.248;-1.700;2023-02-24T02:49:41;9.10;74.10
46926;DHT22;32667;48.248;-1.700;2023-02-24T02:52:17;9.10;74.10
46926;DHT22;32667;48.248;-1.700;2023-02-24T02:57:34;9.20;74.20
46926;DHT22;32667;48.248;-1.700;2023-02-24T03:02:34;9.20;74.20
46926;DHT22;32667;48.248;-1.700;2023-02-24T03:05:04;9.20;74.10
46926;DHT22;32667;48.248;-1.700;2023-02-24T03:07:38;9.20;74.10
46926;DHT22;32667;48.248;-1.700;2023-02-24T03:10:08;9.20;74.20
46926;DHT22;32667;48.248;-1.700;2023-02-24T03:12:36;9.20;74.20
46926;DHT22;32667;48.248;-1.700;2023-02-24T03:15:06;9.20;74.20
46926;DHT22;32667;48.248;-1.700;2023-02-24T03:17:34;9.20;74.20
46926;DHT22;32667;48.248;-1.700;2023-02-24T03:20:06;9.20;74.20
46926;DHT22;32667;48.248;-1.700;2023-02-24T03:22:45;9.20;74.20
46926;DHT22;32667;48.248;-1.700;2023-02-24T03:25:11;9.20;74.20
46926;DHT22;32667;48.248;-1.700;2023-02-24T03:27:40;9.20;74.20
46926;DHT22;32667;48.248;-1.700;2023-02-24T03:30:17;9.20;74.20
46926;DHT22;32667;48.248;-1.700;2023-02-24T03:32:50;9.20;74.20
46926;DHT22;32667;48.248;-1.700;2023-02-24T03:35:21;9.20;74.20
46926;DHT22;32667;48.248;-1.700;2023-02-24T03:37:48;9.20;74.20
46926;DHT22;32667;48.248;-1.700;2023-02-24T03:40:14;9.10;74.20
46926;DHT22;32667;48.248;-1.700;2023-02-24T03:42:42;9.10;74.20
46926;DHT22;32667;48.248;-1.700;2023-02-24T03:45:08;9.10;74.20
46926;DHT22;32667;48.248;-1.700;2023-02-24T03:47:35;9.10;74.20
46926;DHT22;32667;48.248;-1.700;2023-02-24T03:50:00;9.10;74.20
46926;DHT22;32667;48.248;-1.700;2023-02-24T03:57:28;9.20;74.20
46926;DHT22;32667;48.248;-1.700;2023-02-24T04:05:51;9.10;74.20
46926;DHT22;32667;48.248;-1.700;2023-02-24T04:08:18;9.20;74.30
46926;DHT22;32667;48.248;-1.700;2023-02-24T04:11:08;9.20;74.20
46926;DHT22;32667;48.248;-1.700;2023-02-24T04:13:39;9.20;74.10
46926;DHT22;32667;48.248;-1.700;2023-02-24T04:18:46;9.30;74.10
46926;DHT22;32667;48.248;-1.700;2023-02-24T04:21:15;9.30;74.00
46926;DHT22;32667;48.248;-1.700;2023-02-24T04:23:44;9.30;74.00
46926;DHT22;32667;48.248;-1.700;2023-02-24T04:26:15;9.30;74.10
46926;DHT22;32667;48.248;-1.700;2023-02-24T04:28:44;9.30;74.10
46926;DHT22;32667;48.248;-1.700;2023-02-24T04:31:12;9.30;74.10
46926;DHT22;32667;48.248;-1.700;2023-02-24T04:33:41;9.30;74.10
46926;DHT22;32667;48.248;-1.700;2023-02-24T04:36:13;9.30;74.10
46926;DHT22;32667;48.248;-1.700;2023-02-24T04:38:39;9.30;74.20
46926;DHT22;32667;48.248;-1.700;2023-02-24T04:41:04;9.30;74.10
46926;DHT22;32667;48.248;-1.700;2023-02-24T04:43:30;9.30;74.10
46926;DHT22;32667;48.248;-1.700;2023-02-24T04:45:55;9.30;74.10
46926;DHT22;32667;48.248;-1.700;2023-02-24T04:48:21;9.30;74.10
46926;DHT22;32667;48.248;-1.700;2023-02-24T04:50:47;9.30;74.10
46926;DHT22;32667;48.248;-1.700;2023-02-24T04:53:19;9.30;74.10
46926;DHT22;32667;48.248;-1.700;2023-02-24T04:55:51;9.30;74.10
46926;DHT22;32667;48.248;-1.700;2023-02-24T04:58:18;9.30;74.10
46926;DHT22;32667;48.248;-1.700;2023-02-24T05:00:44;9.30;74.70
46926;DHT22;32667;48.248;-1.700;2023-02-24T05:03:12;9.30;74.10
46926;DHT22;32667;48.248;-1.700;2023-02-24T05:05:37;9.40;74.10
46926;DHT22;32667;48.248;-1.700;2023-02-24T05:08:07;9.40;74.10
46926;DHT22;32667;48.248;-1.700;2023-02-24T05:10:38;9.40;74.10
46926;DHT22;32667;48.248;-1.700;2023-02-24T05:13:04;9.40;74.00
46926;DHT22;32667;48.248;-1.700;2023-02-24T05:15:37;9.40;74.10
46926;DHT22;32667;48.248;-1.700;2023-02-24T05:18:04;9.40;74.00
46926;DHT22;32667;48.248;-1.700;2023-02-24T05:20:36;9.40;74.00
46926;DHT22;32667;48.248;-1.700;2023-02-24T05:23:25;9.40;74.00
46926;DHT22;32667;48.248;-1.700;2023-02-24T05:25:50;9.40;74.00
46926;DHT22;32667;48.248;-1.700;2023-02-24T05:28:22;9.40;74.10
46926;DHT22;32667;48.248;-1.700;2023-02-24T05:30:51;9.30;74.10
46926;DHT22;32667;48.248;-1.700;2023-02-24T05:33:18;9.30;74.10
46926;DHT22;32667;48.248;-1.700;2023-02-24T05:35:49;9.30;74.20
46926;DHT22;32667;48.248;-1.700;2023-02-24T05:38:19;9.30;74.20
46926;DHT22;32667;48.248;-1.700;2023-02-24T05:40:45;9.30;74.20
46926;DHT22;32667;48.248;-1.700;2023-02-24T05:43:14;9.20;74.20
46926;DHT22;32667;48.248;-1.700;2023-02-24T05:45:44;9.20;74.20
46926;DHT22;32667;48.248;-1.700;2023-02-24T05:48:13;9.20;74.30
46926;DHT22;32667;48.248;-1.700;2023-02-24T05:50:41;9.20;74.40
46926;DHT22;32667;48.248;-1.700;2023-02-24T05:53:11;9.20;74.40
46926;DHT22;32667;48.248;-1.700;2023-02-24T05:55:37;9.10;74.40
46926;DHT22;32667;48.248;-1.700;2023-02-24T05:58:03;9.10;74.30
46926;DHT22;32667;48.248;-1.700;2023-02-24T06:00:32;9.10;74.30
46926;DHT22;32667;48.248;-1.700;2023-02-24T06:03:06;9.10;74.40
46926;DHT22;32667;48.248;-1.700;2023-02-24T06:05:33;9.10;74.40
46926;DHT22;32667;48.248;-1.700;2023-02-24T06:08:00;9.10;74.50
46926;DHT22;32667;48.248;-1.700;2023-02-24T06:10:32;9.10;74.50
46926;DHT22;32667;48.248;-1.700;2023-02-24T06:12:59;9.00;74.50
46926;DHT22;32667;48.248;-1.700;2023-02-24T06:15:25;9.00;74.50
46926;DHT22;32667;48.248;-1.700;2023-02-24T06:17:51;9.00;74.50
46926;DHT22;32667;48.248;-1.700;2023-02-24T06:20:21;9.00;74.50
46926;DHT22;32667;48.248;-1.700;2023-02-24T06:22:47;9.00;74.50
46926;DHT22;32667;48.248;-1.700;2023-02-24T06:25:21;9.00;74.50
46926;DHT22;32667;48.248;-1.700;2023-02-24T06:27:52;8.90;74.50
46926;DHT22;32667;48.248;-1.700;2023-02-24T06:30:19;8.90;74.60
46926;DHT22;32667;48.248;-1.700;2023-02-24T06:32:46;8.90;74.70
46926;DHT22;32667;48.248;-1.700;2023-02-24T06:35:12;8.90;74.70
46926;DHT22;32667;48.248;-1.700;2023-02-24T06:37:41;8.80;74.60
46926;DHT22;32667;48.248;-1.700;2023-02-24T06:40:06;8.80;74.80
46926;DHT22;32667;48.248;-1.700;2023-02-24T06:42:43;8.70;74.80
46926;DHT22;32667;48.248;-1.700;2023-02-24T06:45:08;8.70;74.90
46926;DHT22;32667;48.248;-1.700;2023-02-24T06:47:36;8.60;74.90
46926;DHT22;32667;48.248;-1.700;2023-02-24T06:50:05;8.60;74.90
46926;DHT22;32667;48.248;-1.700;2023-02-24T06:52:31;8.50;74.90
46926;DHT22;32667;48.248;-1.700;2023-02-24T06:54:57;8.50;75.00
46926;DHT22;32667;48.248;-1.700;2023-02-24T06:57:25;8.50;75.00
46926;DHT22;32667;48.248;-1.700;2023-02-24T06:59:57;8.50;75.00
46926;DHT22;32667;48.248;-1.700;2023-02-24T07:02:22;8.40;75.00
46926;DHT22;32667;48.248;-1.700;2023-02-24T07:04:54;8.40;75.10
46926;DHT22;32667;48.248;-1.700;2023-02-24T07:07:22;8.40;75.00
46926;DHT22;32667;48.248;-1.700;2023-02-24T07:09:48;8.40;75.20
46926;DHT22;32667;48.248;-1.700;2023-02-24T07:12:14;8.30;75.10
46926;DHT22;32667;48.248;-1.700;2023-02-24T07:14:45;8.30;75.10
46926;DHT22;32667;48.248;-1.700;2023-02-24T07:17:15;8.30;75.20
46926;DHT22;32667;48.248;-1.700;2023-02-24T07:19:43;8.30;75.20
46926;DHT22;32667;48.248;-1.700;2023-02-24T07:22:09;8.30;75.10
46926;DHT22;32667;48.248;-1.700;2023-02-24T07:24:37;8.30;75.10
46926;DHT22;32667;48.248;-1.700;2023-02-24T07:27:09;8.30;75.10
46926;DHT22;32667;48.248;-1.700;2023-02-24T07:29:36;8.30;75.10
46926;DHT22;32667;48.248;-1.700;2023-02-24T07:32:05;8.30;75.00
46926;DHT22;32667;48.248;-1.700;2023-02-24T07:34:32;8.30;75.00
46926;DHT22;32667;48.248;-1.700;2023-02-24T07:36:58;8.30;75.00
46926;DHT22;32667;48.248;-1.700;2023-02-24T07:39:26;8.20;75.00
46926;DHT22;32667;48.248;-1.700;2023-02-24T07:41:53;8.30;75.10
46926;DHT22;32667;48.248;-1.700;2023-02-24T07:44:20;8.20;75.00
46926;DHT22;32667;48.248;-1.700;2023-02-24T07:46:48;8.20;75.00
46926;DHT22;32667;48.248;-1.700;2023-02-24T07:49:15;8.20;75.00
46926;DHT22;32667;48.248;-1.700;2023-02-24T07:51:42;8.20;75.00
46926;DHT22;32667;48.248;-1.700;2023-02-24T07:54:09;8.20;75.00
46926;DHT22;32667;48.248;-1.700;2023-02-24T07:56:36;8.20;75.00
46926;DHT22;32667;48.248;-1.700;2023-02-24T07:59:11;8.20;75.00
46926;DHT22;32667;48.248;-1.700;2023-02-24T08:01:40;8.20;75.00
46926;DHT22;32667;48.248;-1.700;2023-02-24T08:04:18;8.20;75.00
46926;DHT22;32667;48.248;-1.700;2023-02-24T08:06:45;8.20;75.00
46926;DHT22;32667;48.248;-1.700;2023-02-24T08:09:14;8.20;75.00
46926;DHT22;32667;48.248;-1.700;2023-02-24T08:11:46;8.20;75.00
46926;DHT22;32667;48.248;-1.700;2023-02-24T08:14:17;8.20;74.90
46926;DHT22;32667;48.248;-1.700;2023-02-24T08:16:48;8.20;74.90
46926;DHT22;32667;48.248;-1.700;2023-02-24T08:19:15;8.30;74.90
46926;DHT22;32667;48.248;-1.700;2023-02-24T08:21:51;8.30;74.90
46926;DHT22;32667;48.248;-1.700;2023-02-24T08:24:21;8.30;74.80
46926;DHT22;32667;48.248;-1.700;2023-02-24T08:26:49;8.40;74.70
46926;DHT22;32667;48.248;-1.700;2023-02-24T08:29:31;8.40;74.60
46926;DHT22;32667;48.248;-1.700;2023-02-24T08:32:13;8.50;74.50
46926;DHT22;32667;48.248;-1.700;2023-02-24T08:34:40;8.60;74.40
46926;DHT22;32667;48.248;-1.700;2023-02-24T08:37:08;8.70;74.30
46926;DHT22;32667;48.248;-1.700;2023-02-24T08:39:34;8.70;74.20
46926;DHT22;32667;48.248;-1.700;2023-02-24T08:42:01;8.80;74.20
46926;DHT22;32667;48.248;-1.700;2023-02-24T08:44:27;8.90;74.10
46926;DHT22;32667;48.248;-1.700;2023-02-24T08:46:53;8.90;74.00
46926;DHT22;32667;48.248;-1.700;2023-02-24T08:49:19;9.00;73.90
46926;DHT22;32667;48.248;-1.700;2023-02-24T08:51:46;9.00;73.80
46926;DHT22;32667;48.248;-1.700;2023-02-24T08:54:18;9.10;73.80
46926;DHT22;32667;48.248;-1.700;2023-02-24T08:56:52;9.10;73.70
46926;DHT22;32667;48.248;-1.700;2023-02-24T08:59:20;9.20;73.60
46926;DHT22;32667;48.248;-1.700;2023-02-24T09:02:19;9.30;73.60
46926;DHT22;32667;48.248;-1.700;2023-02-24T09:04:48;9.30;73.50
46926;DHT22;32667;48.248;-1.700;2023-02-24T09:07:15;9.30;73.50
46926;DHT22;32667;48.248;-1.700;2023-02-24T09:09:43;9.40;73.50
46926;DHT22;32667;48.248;-1.700;2023-02-24T09:12:09;9.40;73.50
46926;DHT22;32667;48.248;-1.700;2023-02-24T09:14:49;9.40;73.40
46926;DHT22;32667;48.248;-1.700;2023-02-24T09:17:20;9.50;73.40
46926;DHT22;32667;48.248;-1.700;2023-02-24T09:19:53;9.50;74.00
46926;DHT22;32667;48.248;-1.700;2023-02-24T09:22:37;9.60;73.40
46926;DHT22;32667;48.248;-1.700;2023-02-24T09:25:23;9.60;73.40
46926;DHT22;32667;48.248;-1.700;2023-02-24T09:27:51;9.60;73.40
46926;DHT22;32667;48.248;-1.700;2023-02-24T09:30:24;9.70;73.40
46926;DHT22;32667;48.248;-1.700;2023-02-24T09:33:05;9.70;73.30
46926;DHT22;32667;48.248;-1.700;2023-02-24T09:35:33;9.70;73.20
46926;DHT22;32667;48.248;-1.700;2023-02-24T09:38:03;9.70;73.30
46926;DHT22;32667;48.248;-1.700;2023-02-24T09:40:37;9.70;73.30
46926;DHT22;32667;48.248;-1.700;2023-02-24T09:43:11;9.80;74.00
46926;DHT22;32667;48.248;-1.700;2023-02-24T09:46:00;9.80;73.40
46926;DHT22;32667;48.248;-1.700;2023-02-24T09:48:59;9.80;73.30
46926;DHT22;32667;48.248;-1.700;2023-02-24T09:51:31;9.80;73.30
46926;DHT22;32667;48.248;-1.700;2023-02-24T09:54:13;9.80;73.40
46926;DHT22;32667;48.248;-1.700;2023-02-24T09:56:49;9.80;73.40
46926;DHT22;32667;48.248;-1.700;2023-02-24T10:09:34;9.80;73.50
46926;DHT22;32667;48.248;-1.700;2023-02-24T10:17:39;9.70;73.70
46926;DHT22;32667;48.248;-1.700;2023-02-24T10:20:17;9.80;73.60
46926;DHT22;32667;48.248;-1.700;2023-02-24T10:23:14;9.80;73.50
46926;DHT22;32667;48.248;-1.700;2023-02-24T10:25:46;9.90;73.50
46926;DHT22;32667;48.248;-1.700;2023-02-24T10:30:59;10.00;73.20
46926;DHT22;32667;48.248;-1.700;2023-02-24T10:33:35;10.00;73.10
46926;DHT22;32667;48.248;-1.700;2023-02-24T10:36:05;10.00;73.20
46926;DHT22;32667;48.248;-1.700;2023-02-24T10:38:34;9.90;73.20
46926;DHT22;32667;48.248;-1.700;2023-02-24T10:41:01;9.90;73.30
46926;DHT22;32667;48.248;-1.700;2023-02-24T10:43:30;9.90;73.40
46926;DHT22;32667;48.248;-1.700;2023-02-24T10:45:58;9.90;73.40
46926;DHT22;32667;48.248;-1.700;2023-02-24T10:48:33;9.80;73.50
46926;DHT22;32667;48.248;-1.700;2023-02-24T10:51:10;9.80;73.60
46926;DHT22;32667;48.248;-1.700;2023-02-24T10:53:36;9.80;73.60
46926;DHT22;32667;48.248;-1.700;2023-02-24T10:56:07;9.90;73.50
46926;DHT22;32667;48.248;-1.700;2023-02-24T10:59:10;9.90;73.50
46926;DHT22;32667;48.248;-1.700;2023-02-24T11:02:13;9.90;73.40
46926;DHT22;32667;48.248;-1.700;2023-02-24T11:04:51;9.90;73.50
46926;DHT22;32667;48.248;-1.700;2023-02-24T11:07:20;9.90;73.50
46926;DHT22;32667;48.248;-1.700;2023-02-24T11:10:07;9.90;73.50
46926;DHT22;32667;48.248;-1.700;2023-02-24T11:12:43;9.90;73.40
46926;DHT22;32667;48.248;-1.700;2023-02-24T11:15:31;9.90;73.40
46926;DHT22;32667;48.248;-1.700;2023-02-24T11:18:18;9.90;73.50
46926;DHT22;32667;48.248;-1.700;2023-02-24T11:20:45;10.00;73.50
46926;DHT22;32667;48.248;-1.700;2023-02-24T11:23:16;10.10;73.40
46926;DHT22;32667;48.248;-1.700;2023-02-24T11:25:45;10.20;73.20
46926;DHT22;32667;48.248;-1.700;2023-02-24T11:28:33;10.30;73.10
46926;DHT22;32667;48.248;-1.700;2023-02-24T11:31:18;10.40;72.90
46926;DHT22;32667;48.248;-1.700;2023-02-24T11:39:14;10.60;72.40
46926;DHT22;32667;48.248;-1.700;2023-02-24T11:41:48;10.70;72.50
46926;DHT22;32667;48.248;-1.700;2023-02-24T11:44:25;10.70;72.50
46926;DHT22;32667;48.248;-1.700;2023-02-24T11:46:55;10.70;72.50
46926;DHT22;32667;48.248;-1.700;2023-02-24T11:51:50;10.50;72.60
46926;DHT22;32667;48.248;-1.700;2023-02-24T11:54:16;10.40;72.90
46926;DHT22;32667;48.248;-1.700;2023-02-24T11:56:46;10.40;73.10
46926;DHT22;32667;48.248;-1.700;2023-02-24T12:02:00;10.50;73.20
46926;DHT22;32667;48.248;-1.700;2023-02-24T12:04:39;10.50;73.10
46926;DHT22;32667;48.248;-1.700;2023-02-24T12:07:16;10.60;72.90
46926;DHT22;32667;48.248;-1.700;2023-02-24T12:09:44;10.80;72.80
46926;DHT22;32667;48.248;-1.700;2023-02-24T12:14:40;10.90;72.50
46926;DHT22;32667;48.248;-1.700;2023-02-24T12:17:11;11.00;72.40
46926;DHT22;32667;48.248;-1.700;2023-02-24T12:19:46;11.10;72.30
46926;DHT22;32667;48.248;-1.700;2023-02-24T12:22:16;11.00;72.20
46926;DHT22;32667;48.248;-1.700;2023-02-24T12:24:46;11.00;72.20
46926;DHT22;32667;48.248;-1.700;2023-02-24T12:27:25;11.00;72.40
46926;DHT22;32667;48.248;-1.700;2023-02-24T12:40:39;11.20;72.40
46926;DHT22;32667;48.248;-1.700;2023-02-24T12:48:18;11.30;72.30
46926;DHT22;32667;48.248;-1.700;2023-02-24T12:53:22;11.30;72.20
46926;DHT22;32667;48.248;-1.700;2023-02-24T12:55:58;11.40;72.20
46926;DHT22;32667;48.248;-1.700;2023-02-24T12:58:29;11.40;72.10
46926;DHT22;32667;48.248;-1.700;2023-02-24T13:03:34;11.40;72.10
46926;DHT22;32667;48.248;-1.700;2023-02-24T13:11:25;11.50;72.10
46926;DHT22;32667;48.248;-1.700;2023-02-24T13:13:59;11.50;72.10
46926;DHT22;32667;48.248;-1.700;2023-02-24T13:16:28;11.60;72.10
46926;DHT22;32667;48.248;-1.700;2023-02-24T13:19:02;11.60;72.10
46926;DHT22;32667;48.248;-1.700;2023-02-24T13:21:28;11.70;72.10
46926;DHT22;32667;48.248;-1.700;2023-02-24T13:23:57;11.80;72.10
46926;DHT22;32667;48.248;-1.700;2023-02-24T13:26:33;11.90;72.00
46926;DHT22;32667;48.248;-1.700;2023-02-24T13:29:03;12.00;71.80
46926;DHT22;32667;48.248;-1.700;2023-02-24T13:31:44;12.00;71.60
46926;DHT22;32667;48.248;-1.700;2023-02-24T13:34:26;12.10;71.60
46926;DHT22;32667;48.248;-1.700;2023-02-24T13:36:59;12.20;71.50
46926;DHT22;32667;48.248;-1.700;2023-02-24T13:42:03;12.40;71.30
46926;DHT22;32667;48.248;-1.700;2023-02-24T13:44:37;12.50;71.10
46926;DHT22;32667;48.248;-1.700;2023-02-24T13:54:42;12.80;71.00
46926;DHT22;32667;48.248;-1.700;2023-02-24T14:02:36;13.10;70.80
46926;DHT22;32667;48.248;-1.700;2023-02-24T14:05:07;13.10;70.70
46926;DHT22;32667;48.248;-1.700;2023-02-24T14:07:34;13.00;70.70
46926;DHT22;32667;48.248;-1.700;2023-02-24T14:10:04;13.00;71.00
46926;DHT22;32667;48.248;-1.700;2023-02-24T14:12:38;13.10;71.10
46926;DHT22;32667;48.248;-1.700;2023-02-24T14:15:05;13.10;71.10
46926;DHT22;32667;48.248;-1.700;2023-02-24T14:17:36;13.20;71.10
46926;DHT22;32667;48.248;-1.700;2023-02-24T14:22:42;13.30;71.10
46926;DHT22;32667;48.248;-1.700;2023-02-24T14:25:08;13.30;71.00
46926;DHT22;32667;48.248;-1.700;2023-02-24T14:27:38;13.40;70.80
46926;DHT22;32667;48.248;-1.700;2023-02-24T14:30:05;13.40;70.80
46926;DHT22;32667;48.248;-1.700;2023-02-24T14:32:31;13.40;70.80
46926;DHT22;32667;48.248;-1.700;2023-02-24T14:34:57;13.40;70.90
46926;DHT22;32667;48.248;-1.700;2023-02-24T14:37:27;13.50;71.10
46926;DHT22;32667;48.248;-1.700;2023-02-24T14:39:56;13.50;70.90
46926;DHT22;32667;48.248;-1.700;2023-02-24T14:42:45;13.50;70.90
46926;DHT22;32667;48.248;-1.700;2023-02-24T14:45:14;13.50;70.90
46926;DHT22;32667;48.248;-1.700;2023-02-24T14:47:40;13.50;71.00
46926;DHT22;32667;48.248;-1.700;2023-02-24T14:50:13;13.40;71.10
46926;DHT22;32667;48.248;-1.700;2023-02-24T14:52:52;13.40;71.20
46926;DHT22;32667;48.248;-1.700;2023-02-24T14:55:21;13.30;71.40
46926;DHT22;32667;48.248;-1.700;2023-02-24T15:00:22;13.20;71.70
46926;DHT22;32667;48.248;-1.700;2023-02-24T15:05:26;13.20;71.70
46926;DHT22;32667;48.248;-1.700;2023-02-24T15:07:52;13.20;71.70
46926;DHT22;32667;48.248;-1.700;2023-02-24T15:10:22;13.20;71.70
46926;DHT22;32667;48.248;-1.700;2023-02-24T15:12:50;13.30;71.60
46926;DHT22;32667;48.248;-1.700;2023-02-24T15:15:21;13.40;71.40
46926;DHT22;32667;48.248;-1.700;2023-02-24T15:17:49;13.40;71.30
46926;DHT22;32667;48.248;-1.700;2023-02-24T15:20:29;13.40;71.30
46926;DHT22;32667;48.248;-1.700;2023-02-24T15:22:55;13.30;71.30
46926;DHT22;32667;48.248;-1.700;2023-02-24T15:25:23;13.30;71.40
46926;DHT22;32667;48.248;-1.700;2023-02-24T15:30:31;13.10;71.70
46926;DHT22;32667;48.248;-1.700;2023-02-24T15:33:05;13.10;71.80
46926;DHT22;32667;48.248;-1.700;2023-02-24T15:35:34;13.00;71.90
46926;DHT22;32667;48.248;-1.700;2023-02-24T15:38:02;12.90;72.00
46926;DHT22;32667;48.248;-1.700;2023-02-24T15:40:28;12.90;72.10
46926;DHT22;32667;48.248;-1.700;2023-02-24T15:42:55;12.90;72.10
46926;DHT22;32667;48.248;-1.700;2023-02-24T15:45:26;12.90;72.00
46926;DHT22;32667;48.248;-1.700;2023-02-24T15:47:56;12.90;72.00
46926;DHT22;32667;48.248;-1.700;2023-02-24T15:50:22;13.00;71.90
46926;DHT22;32667;48.248;-1.700;2023-02-24T15:52:48;13.00;71.80
46926;DHT22;32667;48.248;-1.700;2023-02-24T15:55:17;13.00;71.80
46926;DHT22;32667;48.248;-1.700;2023-02-24T15:57:44;12.90;71.80
46926;DHT22;32667;48.248;-1.700;2023-02-24T16:00:11;12.90;71.80
46926;DHT22;32667;48.248;-1.700;2023-02-24T16:02:38;12.90;71.90
46926;DHT22;32667;48.248;-1.700;2023-02-24T16:05:04;12.80;71.90
46926;DHT22;32667;48.248;-1.700;2023-02-24T16:07:31;12.80;72.00
46926;DHT22;32667;48.248;-1.700;2023-02-24T16:09:57;12.80;72.10
46926;DHT22;32667;48.248;-1.700;2023-02-24T16:12:24;12.80;72.10
46926;DHT22;32667;48.248;-1.700;2023-02-24T16:14:53;12.70;72.10
46926;DHT22;32667;48.248;-1.700;2023-02-24T16:17:29;12.70;72.10
46926;DHT22;32667;48.248;-1.700;2023-02-24T16:19:55;12.70;72.10
46926;DHT22;32667;48.248;-1.700;2023-02-24T16:22:22;12.60;72.20
46926;DHT22;32667;48.248;-1.700;2023-02-24T16:24:47;12.50;72.30
46926;DHT22;32667;48.248;-1.700;2023-02-24T16:27:17;12.40;72.40
46926;DHT22;32667;48.248;-1.700;2023-02-24T16:29:43;12.30;72.40
46926;DHT22;32667;48.248;-1.700;2023-02-24T16:32:12;12.20;72.60
46926;DHT22;32667;48.248;-1.700;2023-02-24T16:34:40;12.20;72.80
46926;DHT22;32667;48.248;-1.700;2023-02-24T16:37:15;12.10;72.90
46926;DHT22;32667;48.248;-1.700;2023-02-24T16:39:42;12.10;72.90
46926;DHT22;32667;48.248;-1.700;2023-02-24T16:42:08;12.00;72.90
46926;DHT22;32667;48.248;-1.700;2023-02-24T16:44:34;12.00;73.00
46926;DHT22;32667;48.248;-1.700;2023-02-24T16:47:02;11.90;73.00
46926;DHT22;32667;48.248;-1.700;2023-02-24T16:49:28;11.90;73.10
46926;DHT22;32667;48.248;-1.700;2023-02-24T16:51:53;11.80;73.00
46926;DHT22;32667;48.248;-1.700;2023-02-24T16:54:19;11.80;73.70
46926;DHT22;32667;48.248;-1.700;2023-02-24T16:56:55;11.70;73.10
46926;DHT22;32667;48.248;-1.700;2023-02-24T16:59:29;11.70;73.30
46926;DHT22;32667;48.248;-1.700;2023-02-24T17:01:55;11.60;73.30
46926;DHT22;32667;48.248;-1.700;2023-02-24T17:04:23;11.60;73.40
46926;DHT22;32667;48.248;-1.700;2023-02-24T17:06:49;11.60;73.40
46926;DHT22;32667;48.248;-1.700;2023-02-24T17:09:20;11.50;73.30
46926;DHT22;32667;48.248;-1.700;2023-02-24T17:11:47;11.40;73.30
46926;DHT22;32667;48.248;-1.700;2023-02-24T17:14:16;11.40;73.40
46926;DHT22;32667;48.248;-1.700;2023-02-24T17:16:44;11.30;73.40
46926;DHT22;32667;48.248;-1.700;2023-02-24T17:19:17;11.20;73.50
46926;DHT22;32667;48.248;-1.700;2023-02-24T17:21:43;11.20;73.60
46926;DHT22;32667;48.248;-1.700;2023-02-24T17:24:13;11.10;73.70
46926;DHT22;32667;48.248;-1.700;2023-02-24T17:26:46;11.00;73.70
46926;DHT22;32667;48.248;-1.700;2023-02-24T17:29:12;11.00;73.80
46926;DHT22;32667;48.248;-1.700;2023-02-24T17:31:41;10.90;73.90
46926;DHT22;32667;48.248;-1.700;2023-02-24T17:34:07;10.70;74.00
46926;DHT22;32667;48.248;-1.700;2023-02-24T17:36:37;10.70;74.00
46926;DHT22;32667;48.248;-1.700;2023-02-24T17:39:03;10.60;74.10
46926;DHT22;32667;48.248;-1.700;2023-02-24T17:41:28;10.50;74.30
46926;DHT22;32667;48.248;-1.700;2023-02-24T17:43:54;10.40;74.30
46926;DHT22;32667;48.248;-1.700;2023-02-24T17:46:19;10.30;74.40
46926;DHT22;32667;48.248;-1.700;2023-02-24T17:48:45;10.20;74.50